Time;durP1;ratioP1;P1;durP2;ratioP2;P2;SDS_P1;SDS_P2;PMS_P1;PMS_P2;Temp;Humidity;BMP_temperature;BMP_pressure;BME280_temperature;BME280_humidity;BME280_pressure;Samples;Min_cycle;Max_cycle;Signal;HPM_P1;HPM_P2
2023/05/04 00:02:10;;;;;;;26.90;7.80;;;17.80;77.60;;;;;;4969987;28;20035;-55
2023/05/04 00:04:36;;;;;;;25.92;8.15;;;17.80;77.70;;;;;;4985619;28;20031;-55
2023/05/04 00:07:01;;;;;;;34.95;8.27;;;17.80;77.70;;;;;;4985939;28;20091;-54
2023/05/04 00:09:27;;;;;;;22.50;7.78;;;17.70;77.80;;;;;;4987095;28;20018;-54
2023/05/04 00:11:52;;;;;;;29.17;7.50;;;17.70;77.80;;;;;;4984294;28;20184;-54
2023/05/04 00:14:18;;;;;;;23.13;6.53;;;17.70;77.80;;;;;;4986743;28;20372;-55
2023/05/04 00:16:43;;;;;;;29.30;7.15;;;17.70;77.80;;;;;;4986801;28;20048;-54
2023/05/04 00:19:09;;;;;;;37.50;7.68;;;17.60;77.80;;;;;;4986790;28;20085;-54
2023/05/04 00:21:34;;;;;;;30.13;7.22;;;17.60;77.80;;;;;;4985925;28;20033;-55
2023/05/04 00:24:01;;;;;;;24.17;6.78;;;17.60;77.90;;;;;;4986469;28;20026;-54
2023/05/04 00:26:27;;;;;;;26.52;6.85;;;17.50;77.90;;;;;;4985554;28;20042;-54
2023/05/04 00:28:52;;;;;;;31.85;7.18;;;17.50;78.00;;;;;;4985355;28;20039;-54
2023/05/04 00:31:18;;;;;;;23.15;6.55;;;17.50;78.10;;;;;;4985278;28;20464;-55
2023/05/04 00:33:44;;;;;;;29.88;6.80;;;17.50;78.20;;;;;;4985260;28;20093;-54
2023/05/04 00:36:10;;;;;;;30.15;6.95;;;17.50;78.20;;;;;;4986614;28;20122;-54
2023/05/04 00:38:52;;;;;;;23.55;6.93;;;17.50;78.20;;;;;;4985369;28;20035;-55
2023/05/04 00:41:18;;;;;;;18.35;6.10;;;17.40;78.20;;;;;;4985305;28;20103;-54
2023/05/04 00:43:43;;;;;;;24.40;5.75;;;17.40;78.40;;;;;;4986285;28;20031;-54
2023/05/04 00:46:10;;;;;;;21.90;6.10;;;17.40;79.20;;;;;;4986528;28;20078;-54
2023/05/04 00:48:35;;;;;;;22.17;6.65;;;17.30;78.50;;;;;;4985087;28;20075;-54
2023/05/04 00:51:01;;;;;;;23.60;6.05;;;17.40;78.60;;;;;;4985005;28;20030;-54
2023/05/04 00:53:27;;;;;;;22.15;6.15;;;17.30;78.60;;;;;;4984299;28;20031;-54
2023/05/04 00:55:52;;;;;;;18.05;6.03;;;17.30;78.60;;;;;;4984971;28;20048;-54
2023/05/04 00:58:18;;;;;;;20.65;6.00;;;17.30;78.80;;;;;;4984401;28;20054;-54
2023/05/04 01:00:43;;;;;;;20.70;5.70;;;17.20;78.80;;;;;;4985000;28;20037;-55
2023/05/04 01:03:09;;;;;;;22.77;6.38;;;17.20;78.90;;;;;;4986034;28;20037;-55
2023/05/04 01:05:37;;;;;;;21.77;7.03;;;17.20;78.80;;;;;;4984655;28;20110;-54
2023/05/04 01:08:05;;;;;;;16.83;5.75;;;17.20;78.80;;;;;;4984991;28;20089;-54
2023/05/04 01:10:51;;;;;;;19.48;5.65;;;17.20;78.80;;;;;;4984646;28;20368;-54
2023/05/04 01:13:16;;;;;;;16.20;7.13;;;17.10;78.70;;;;;;4985028;28;20068;-54
2023/05/04 01:15:42;;;;;;;19.10;6.80;;;17.10;78.90;;;;;;4984732;28;20058;-54
2023/05/04 01:18:07;;;;;;;15.23;6.63;;;17.10;78.90;;;;;;4968486;28;20082;-54
2023/05/04 01:20:33;;;;;;;20.10;6.45;;;17.10;79.70;;;;;;4965306;28;20023;-55
2023/05/04 01:22:59;;;;;;;20.17;6.97;;;17.00;79.00;;;;;;4965448;29;20031;-55
2023/05/04 01:25:29;;;;;;;16.67;6.57;;;17.00;79.10;;;;;;4949143;29;20127;-54
2023/05/04 01:28:10;;;;;;;20.75;6.07;;;17.00;79.20;;;;;;4949920;29;20105;-55
2023/05/04 01:30:38;;;;;;;21.85;5.90;;;16.90;79.20;;;;;;4965042;29;20055;-54
2023/05/04 01:33:04;;;;;;;14.35;5.57;;;16.90;79.30;;;;;;4977219;28;20027;-55
2023/05/04 01:35:29;;;;;;;10.38;5.65;;;16.90;79.20;;;;;;4968260;28;20031;-55
2023/05/04 01:37:55;;;;;;;13.05;6.25;;;16.90;79.20;;;;;;4968332;28;20499;-54
2023/05/04 01:40:20;;;;;;;20.25;5.95;;;16.80;79.30;;;;;;4985803;28;20038;-55
2023/05/04 01:42:46;;;;;;;15.70;5.53;;;16.80;79.40;;;;;;4984270;28;20462;-55
2023/05/04 01:45:12;;;;;;;18.02;5.70;;;16.80;79.40;;;;;;4985345;28;20037;-55
2023/05/04 01:47:37;;;;;;;14.38;5.95;;;16.80;79.60;;;;;;4984092;28;20035;-54
2023/05/04 01:50:04;;;;;;;17.95;6.78;;;16.70;79.40;;;;;;4985249;28;20102;-54
2023/05/04 01:52:30;;;;;;;17.38;6.55;;;16.70;79.50;;;;;;4985351;28;20038;-54
2023/05/04 01:54:55;;;;;;;18.13;6.57;;;16.70;79.60;;;;;;4985326;28;20034;-54
2023/05/04 01:57:21;;;;;;;11.75;6.32;;;16.70;79.70;;;;;;4983748;28;20023;-54
2023/05/04 01:59:46;;;;;;;13.52;6.25;;;16.70;79.80;;;;;;4964770;28;20042;-54
2023/05/04 02:02:12;;;;;;;15.65;6.05;;;16.70;79.90;;;;;;4974505;28;20031;-54
2023/05/04 02:04:37;;;;;;;14.85;6.63;;;16.70;80.00;;;;;;4986367;28;20031;-55
2023/05/04 02:07:03;;;;;;;13.57;5.93;;;16.70;80.10;;;;;;4987780;28;20045;-55
2023/05/04 02:09:28;;;;;;;14.73;5.45;;;16.60;80.20;;;;;;4988803;28;20086;-54
2023/05/04 02:11:54;;;;;;;18.67;5.60;;;16.60;80.40;;;;;;4988975;28;20035;-54
2023/05/04 02:14:20;;;;;;;11.55;5.07;;;16.60;80.50;;;;;;4987391;28;20027;-55
2023/05/04 02:16:45;;;;;;;12.77;5.38;;;16.60;80.70;;;;;;4988656;28;20031;-54
2023/05/04 02:19:11;;;;;;;12.50;5.70;;;16.60;80.70;;;;;;4988298;28;20033;-54
2023/05/04 02:21:36;;;;;;;10.40;5.63;;;16.50;80.70;;;;;;4988412;28;20037;-54
2023/05/04 02:24:05;;;;;;;10.23;5.68;;;16.50;80.80;;;;;;4988613;28;20031;-55
2023/05/04 02:26:30;;;;;;;10.93;5.60;;;16.50;80.80;;;;;;4987931;28;20110;-54
2023/05/04 02:28:56;;;;;;;15.95;5.82;;;16.50;80.80;;;;;;4987481;28;20126;-54
2023/05/04 02:31:21;;;;;;;9.75;4.93;;;16.50;80.90;;;;;;4988729;28;20042;-54
2023/05/04 02:33:48;;;;;;;12.88;6.10;;;16.50;81.00;;;;;;4987581;28;20038;-54
2023/05/04 02:36:14;;;;;;;12.60;5.60;;;16.50;81.10;;;;;;4988144;28;20030;-55
2023/05/04 02:38:40;;;;;;;8.60;5.72;;;16.40;81.10;;;;;;4988743;28;20136;-54
2023/05/04 02:41:05;;;;;;;12.80;6.10;;;16.40;81.20;;;;;;4987244;28;20034;-54
2023/05/04 02:43:31;;;;;;;12.80;5.70;;;16.40;81.30;;;;;;4988282;28;20069;-55
2023/05/04 02:45:56;;;;;;;10.95;5.32;;;16.40;81.40;;;;;;4987281;28;20352;-55
2023/05/04 02:48:23;;;;;;;10.45;5.90;;;16.40;81.40;;;;;;4988581;28;20111;-54
2023/05/04 02:50:49;;;;;;;10.43;5.10;;;16.40;81.40;;;;;;4988409;28;20030;-55
2023/05/04 02:53:14;;;;;;;12.15;5.70;;;16.30;81.40;;;;;;4986644;28;20041;-55
2023/05/04 02:55:40;;;;;;;10.20;5.65;;;16.30;81.40;;;;;;4988008;28;20138;-54
2023/05/04 02:58:06;;;;;;;10.00;5.95;;;16.30;81.40;;;;;;4987056;28;20074;-55
2023/05/04 03:00:31;;;;;;;13.30;6.43;;;16.30;81.50;;;;;;4987144;28;20542;-54
2023/05/04 03:02:57;;;;;;;10.65;5.88;;;16.30;81.60;;;;;;4987021;28;20111;-55
2023/05/04 03:05:23;;;;;;;12.40;6.22;;;16.20;81.50;;;;;;4967594;28;20043;-54
2023/05/04 03:07:49;;;;;;;10.43;5.90;;;16.20;81.60;;;;;;4984004;28;20034;-54
2023/05/04 03:10:15;;;;;;;12.07;6.45;;;16.20;81.70;;;;;;4984148;28;20037;-55
2023/05/04 03:12:40;;;;;;;22.30;5.88;;;16.20;81.70;;;;;;4987456;28;20038;-54
2023/05/04 03:15:06;;;;;;;9.75;5.68;;;16.20;81.90;;;;;;4985979;28;20103;-55
2023/05/04 03:17:32;;;;;;;11.93;5.70;;;16.10;81.80;;;;;;4986510;28;20033;-54
2023/05/04 03:19:58;;;;;;;11.07;6.38;;;16.10;81.80;;;;;;4987902;28;20102;-54
2023/05/04 03:22:23;;;;;;;16.23;8.30;;;16.10;81.80;;;;;;4986238;28;20027;-54
2023/05/04 03:24:50;;;;;;;13.48;8.10;;;16.10;81.90;;;;;;4986544;28;20127;-54
2023/05/04 03:27:16;;;;;;;15.45;7.30;;;16.10;82.00;;;;;;4986419;28;20038;-54
2023/05/04 03:29:41;;;;;;;13.32;6.63;;;16.10;82.10;;;;;;4987755;28;20062;-55
2023/05/04 03:32:07;;;;;;;11.77;6.70;;;16.00;82.10;;;;;;4986301;28;20041;-54
2023/05/04 03:34:32;;;;;;;11.00;6.32;;;16.00;82.30;;;;;;4987339;28;20037;-54
2023/05/04 03:36:58;;;;;;;15.88;7.15;;;16.00;82.40;;;;;;4986242;28;20325;-54
2023/05/04 03:39:24;;;;;;;13.00;7.43;;;16.00;83.10;;;;;;4986300;28;20030;-54
2023/05/04 03:41:51;;;;;;;11.85;6.60;;;15.90;82.50;;;;;;4986272;28;20042;-54
2023/05/04 03:44:17;;;;;;;12.23;7.18;;;15.90;82.60;;;;;;5002617;28;20037;-55
2023/05/04 03:46:42;;;;;;;13.27;6.90;;;15.90;82.50;;;;;;4986206;28;20174;-55
2023/05/04 03:49:08;;;;;;;9.75;6.63;;;15.90;83.10;;;;;;5018515;28;20026;-54
2023/05/04 03:51:33;;;;;;;10.20;6.43;;;15.90;82.60;;;;;;4985434;28;20030;-54
2023/05/04 03:53:59;;;;;;;14.63;6.85;;;15.80;82.50;;;;;;4987258;28;20027;-55
2023/05/04 03:56:25;;;;;;;11.57;6.63;;;15.80;82.60;;;;;;4985591;28;20479;-54
2023/05/04 03:58:50;;;;;;;11.48;6.72;;;15.80;82.60;;;;;;4966438;28;20024;-54
2023/05/04 04:01:16;;;;;;;9.88;6.57;;;15.70;82.60;;;;;;4979891;28;20031;-55
2023/05/04 04:03:41;;;;;;;13.13;6.97;;;15.80;82.80;;;;;;4986791;28;20090;-54
2023/05/04 04:06:08;;;;;;;11.43;6.43;;;15.70;82.80;;;;;;4986163;28;20039;-54
2023/05/04 04:08:34;;;;;;;12.43;6.65;;;15.70;82.80;;;;;;4987097;28;20099;-55
2023/05/04 04:10:59;;;;;;;9.57;6.32;;;15.70;82.80;;;;;;4987186;28;20105;-55
2023/05/04 04:13:26;;;;;;;11.75;6.72;;;15.60;82.80;;;;;;4986325;28;20030;-54
2023/05/04 04:15:52;;;;;;;11.93;6.18;;;15.60;82.90;;;;;;4986810;28;20049;-54
2023/05/04 04:18:18;;;;;;;14.65;6.40;;;15.60;83.00;;;;;;4985605;28;20026;-54
2023/05/04 04:20:44;;;;;;;9.32;5.90;;;15.60;83.00;;;;;;4985478;28;20461;-54
2023/05/04 04:23:09;;;;;;;9.93;6.28;;;15.50;82.90;;;;;;4986560;28;20081;-54
2023/05/04 04:25:36;;;;;;;7.72;5.82;;;15.50;83.00;;;;;;4985253;28;20447;-55
2023/05/04 04:28:01;;;;;;;8.15;6.28;;;15.50;83.00;;;;;;4969098;28;20042;-55
2023/05/04 04:30:27;;;;;;;9.85;5.78;;;15.50;83.00;;;;;;4985294;28;20031;-54
2023/05/04 04:32:55;;;;;;;11.88;5.80;;;15.50;83.00;;;;;;4984733;28;20034;-54
2023/05/04 04:35:21;;;;;;;6.80;5.40;;;15.50;83.20;;;;;;4969551;28;20047;-55
2023/05/04 04:37:47;;;;;;;11.18;6.18;;;15.50;83.10;;;;;;4986394;28;20109;-54
2023/05/04 04:40:13;;;;;;;9.75;5.78;;;15.50;83.10;;;;;;4986333;28;20044;-55
2023/05/04 04:42:38;;;;;;;11.27;6.72;;;15.40;83.10;;;;;;4984830;28;20022;-54
2023/05/04 04:45:05;;;;;;;10.63;5.50;;;15.40;83.10;;;;;;4984691;28;20049;-55
2023/05/04 04:47:31;;;;;;;10.18;5.82;;;15.40;83.10;;;;;;4986182;28;20027;-54
2023/05/04 04:49:57;;;;;;;10.05;5.82;;;15.40;83.10;;;;;;4986509;28;20112;-55
2023/05/04 04:52:22;;;;;;;6.35;5.30;;;15.40;83.10;;;;;;4985173;28;20185;-54
2023/05/04 04:54:48;;;;;;;13.82;5.88;;;15.40;83.10;;;;;;4984823;28;20430;-55
2023/05/04 04:57:14;;;;;;;9.63;5.70;;;15.40;83.10;;;;;;4968323;28;20030;-55
2023/05/04 04:59:39;;;;;;;7.38;5.10;;;15.40;83.10;;;;;;4985053;28;20031;-55
2023/05/04 05:02:05;;;;;;;9.85;5.65;;;15.40;83.20;;;;;;4986421;28;20043;-55
2023/05/04 05:04:30;;;;;;;8.00;5.28;;;15.40;83.30;;;;;;4984782;28;20494;-55
2023/05/04 05:06:56;;;;;;;7.80;5.47;;;15.40;83.50;;;;;;4985939;28;20030;-55
2023/05/04 05:09:22;;;;;;;7.60;5.30;;;15.30;83.30;;;;;;4984383;28;20030;-54
2023/05/04 05:11:48;;;;;;;10.48;6.03;;;15.30;83.20;;;;;;4985678;28;20041;-59
2023/05/04 05:14:14;;;;;;;11.77;5.80;;;15.30;83.30;;;;;;4984105;28;20038;-58
2023/05/04 05:16:39;;;;;;;12.60;6.07;;;15.30;83.40;;;;;;4984741;28;20031;-59
2023/05/04 05:19:05;;;;;;;10.18;5.05;;;15.30;83.40;;;;;;4984609;28;20042;-58
2023/05/04 05:21:31;;;;;;;10.07;6.00;;;15.30;83.40;;;;;;4984199;28;20031;-59
2023/05/04 05:23:56;;;;;;;9.20;5.80;;;15.20;83.30;;;;;;4984241;28;20035;-59
2023/05/04 05:26:23;;;;;;;11.63;5.95;;;15.20;83.30;;;;;;4985755;28;20042;-58
2023/05/04 05:28:49;;;;;;;11.98;5.82;;;15.20;83.40;;;;;;4985654;28;20038;-59
2023/05/04 05:31:14;;;;;;;9.50;5.50;;;15.20;83.40;;;;;;4984077;28;20035;-58
2023/05/04 05:33:40;;;;;;;8.95;6.00;;;15.20;83.40;;;;;;4983477;28;20042;-59
2023/05/04 05:36:06;;;;;;;8.95;5.32;;;15.20;83.50;;;;;;4985562;28;20034;-59
2023/05/04 05:38:32;;;;;;;12.05;5.82;;;15.10;83.50;;;;;;4967470;28;20027;-59
2023/05/04 05:40:57;;;;;;;10.82;5.85;;;15.10;83.50;;;;;;4985166;28;20027;-58
2023/05/04 05:43:23;;;;;;;9.15;5.72;;;15.10;83.50;;;;;;4983945;28;20122;-58
2023/05/04 05:45:48;;;;;;;11.13;5.63;;;15.10;83.60;;;;;;4984178;28;20061;-59
2023/05/04 05:48:14;;;;;;;10.48;5.70;;;15.10;83.60;;;;;;4983930;28;20031;-59
2023/05/04 05:50:39;;;;;;;8.75;5.55;;;15.10;83.60;;;;;;4985278;28;20480;-58
2023/05/04 05:53:05;;;;;;;9.55;5.65;;;15.10;83.60;;;;;;4984032;28;20082;-59
2023/05/04 05:55:30;;;;;;;8.65;5.22;;;15.10;83.60;;;;;;4983474;28;20038;-59
2023/05/04 05:57:56;;;;;;;13.43;6.03;;;15.00;83.60;;;;;;4985309;28;20033;-58
2023/05/04 06:00:21;;;;;;;8.30;5.38;;;15.00;83.60;;;;;;4985577;28;20042;-59
2023/05/04 06:02:47;;;;;;;9.13;5.32;;;15.00;84.20;;;;;;4984267;28;20043;-58
2023/05/04 06:05:13;;;;;;;6.28;5.22;;;15.00;83.60;;;;;;4984057;28;20046;-58
2023/05/04 06:07:38;;;;;;;8.63;5.45;;;15.00;83.60;;;;;;4985438;28;20490;-58
2023/05/04 06:10:04;;;;;;;8.68;5.63;;;15.00;83.70;;;;;;4984452;28;20093;-57
2023/05/04 06:12:30;;;;;;;13.10;5.80;;;14.90;83.70;;;;;;4985035;28;20037;-58
2023/05/04 06:14:55;;;;;;;7.95;5.88;;;14.90;83.80;;;;;;4984154;28;20050;-59
2023/05/04 06:17:21;;;;;;;6.00;5.40;;;14.90;83.90;;;;;;4985023;28;20026;-59
2023/05/04 06:19:46;;;;;;;8.65;5.78;;;14.90;84.00;;;;;;4985134;28;20034;-59
2023/05/04 06:22:12;;;;;;;8.55;6.18;;;14.90;84.00;;;;;;4983810;28;20062;-59
2023/05/04 06:24:38;;;;;;;12.05;6.15;;;14.90;84.10;;;;;;4983540;28;20022;-59
2023/05/04 06:27:03;;;;;;;8.43;5.45;;;14.90;84.20;;;;;;4985192;28;20035;-59
2023/05/04 06:29:29;;;;;;;9.02;6.15;;;14.90;84.20;;;;;;4983539;28;20049;-59
2023/05/04 06:31:55;;;;;;;9.68;5.95;;;14.90;84.20;;;;;;4983661;28;20035;-58
2023/05/04 06:34:21;;;;;;;7.78;5.70;;;14.90;84.20;;;;;;4984972;28;20114;-59
2023/05/04 06:36:47;;;;;;;12.18;5.82;;;14.90;84.20;;;;;;4983324;28;20086;-58
2023/05/04 06:39:14;;;;;;;13.10;6.22;;;14.90;84.30;;;;;;4967780;28;20027;-58
2023/05/04 06:41:39;;;;;;;10.43;6.10;;;14.90;84.50;;;;;;4964315;28;20035;-59
2023/05/04 06:44:05;;;;;;;11.90;6.47;;;14.90;84.60;;;;;;4960576;28;20514;-58
2023/05/04 06:46:33;;;;;;;9.70;6.47;;;14.80;84.50;;;;;;4984931;28;20110;-58
2023/05/04 06:48:59;;;;;;;10.93;6.25;;;14.80;84.50;;;;;;4984831;28;20526;-59
2023/05/04 06:51:24;;;;;;;11.95;6.03;;;14.90;84.70;;;;;;4984905;28;20038;-59
2023/05/04 06:53:50;;;;;;;15.57;6.07;;;14.80;84.70;;;;;;4988142;28;20027;-59
2023/05/04 06:56:16;;;;;;;12.80;7.00;;;14.90;84.70;;;;;;4986838;28;20043;-59
2023/05/04 06:58:41;;;;;;;11.30;6.68;;;14.90;84.70;;;;;;4986497;28;20090;-59
2023/05/04 07:01:10;;;;;;;9.98;6.15;;;14.80;84.80;;;;;;4986689;28;20027;-59
2023/05/04 07:03:35;;;;;;;16.45;7.22;;;14.80;84.90;;;;;;4970832;28;20532;-58
2023/05/04 07:06:01;;;;;;;11.50;6.38;;;14.90;85.00;;;;;;4987848;28;20122;-59
2023/05/04 07:08:26;;;;;;;15.27;6.65;;;14.80;85.00;;;;;;4987997;28;20076;-59
2023/05/04 07:10:52;;;;;;;13.20;6.22;;;14.80;85.00;;;;;;4986554;28;20038;-59
2023/05/04 07:13:18;;;;;;;9.55;6.15;;;14.80;85.10;;;;;;4986275;28;20057;-59
2023/05/04 07:15:44;;;;;;;14.98;6.55;;;14.80;85.00;;;;;;4986299;28;20039;-58
2023/05/04 07:18:09;;;;;;;14.25;6.45;;;14.80;85.10;;;;;;4987687;28;20140;-59
2023/05/04 07:20:35;;;;;;;17.02;6.15;;;14.80;85.20;;;;;;4986766;28;20026;-59
2023/05/04 07:23:01;;;;;;;12.02;6.28;;;14.80;85.20;;;;;;4986955;28;20027;-59
2023/05/04 07:25:26;;;;;;;12.38;6.78;;;14.80;85.30;;;;;;4986409;28;20039;-59
2023/05/04 07:27:52;;;;;;;10.88;6.43;;;14.80;85.30;;;;;;4986008;28;20118;-59
2023/05/04 07:30:18;;;;;;;12.45;6.53;;;14.80;85.20;;;;;;4969620;28;20491;-59
2023/05/04 07:32:44;;;;;;;10.27;6.43;;;14.80;85.20;;;;;;4969690;28;20026;-58
2023/05/04 07:35:09;;;;;;;20.58;7.75;;;14.80;85.40;;;;;;4987651;28;20053;-59
2023/05/04 07:37:35;;;;;;;16.13;6.82;;;14.80;86.00;;;;;;4986499;28;20022;-58
2023/05/04 07:40:04;;;;;;;12.88;7.00;;;14.90;86.60;;;;;;4986184;28;20034;-58
2023/05/04 07:42:30;;;;;;;15.73;6.38;;;14.80;85.80;;;;;;4985871;28;20015;-59
2023/05/04 07:44:55;;;;;;;15.73;6.80;;;14.90;85.90;;;;;;4985673;28;20045;-58
2023/05/04 07:47:21;;;;;;;17.25;7.10;;;14.90;85.90;;;;;;4987113;28;20046;-59
2023/05/04 07:49:47;;;;;;;11.88;6.53;;;14.90;86.10;;;;;;4986004;28;20035;-58
2023/05/04 07:52:12;;;;;;;10.63;6.40;;;14.90;86.20;;;;;;4986808;28;20173;-59
2023/05/04 07:54:38;;;;;;;26.23;8.27;;;14.90;86.30;;;;;;4985427;28;20062;-59
2023/05/04 07:57:03;;;;;;;53.85;9.52;;;14.90;86.20;;;;;;4985744;28;20081;-59
2023/05/04 07:59:29;;;;;;;32.38;8.98;;;14.90;86.20;;;;;;4986945;28;20023;-59
2023/05/04 08:01:55;;;;;;;30.95;8.05;;;15.00;86.40;;;;;;4985693;28;20031;-59
2023/05/04 08:04:21;;;;;;;27.98;7.53;;;15.00;86.70;;;;;;4985175;28;20078;-59
2023/05/04 08:06:48;;;;;;;25.75;7.13;;;15.00;86.60;;;;;;4985643;28;20035;-59
2023/05/04 08:09:17;;;;;;;14.55;7.55;;;15.00;86.60;;;;;;4985142;28;20050;-58
2023/05/04 08:11:43;;;;;;;18.75;7.65;;;15.00;86.80;;;;;;4969065;28;20035;-57
2023/05/04 08:14:09;;;;;;;24.50;7.68;;;15.00;86.90;;;;;;4985184;28;20061;-59
2023/05/04 08:16:35;;;;;;;12.93;6.78;;;15.00;86.90;;;;;;4985043;28;20082;-59
2023/05/04 08:19:01;;;;;;;21.52;7.40;;;15.00;86.70;;;;;;4986604;28;20026;-58
2023/05/04 08:21:26;;;;;;;26.45;7.85;;;15.00;86.70;;;;;;4984972;28;20027;-59
2023/05/04 08:23:53;;;;;;;36.83;8.40;;;15.00;86.80;;;;;;4984757;28;20073;-59
2023/05/04 08:26:18;;;;;;;26.52;7.47;;;15.00;87.00;;;;;;4984856;28;20114;-59
2023/05/04 08:28:45;;;;;;;32.25;8.30;;;15.10;87.20;;;;;;4985019;28;20498;-59
2023/05/04 08:31:11;;;;;;;26.42;9.02;;;15.10;87.10;;;;;;4985044;28;20034;-58
2023/05/04 08:33:36;;;;;;;53.75;10.65;;;15.10;87.00;;;;;;4986125;28;20298;-59
2023/05/04 08:36:06;;;;;;;43.15;9.27;;;15.20;87.50;;;;;;4986076;28;20039;-59
2023/05/04 08:38:32;;;;;;;42.28;9.02;;;15.10;87.30;;;;;;4984642;28;20045;-59
2023/05/04 08:41:00;;;;;;;63.38;11.15;;;15.20;86.90;;;;;;4984611;28;20458;-59
2023/05/04 08:43:26;;;;;;;51.70;11.38;;;15.20;87.30;;;;;;4984556;28;20122;-59
2023/05/04 08:45:52;;;;;;;70.15;12.07;;;15.30;87.80;;;;;;4984722;28;20030;-59
2023/05/04 08:48:17;;;;;;;67.93;11.57;;;15.30;88.00;;;;;;4968356;28;20031;-59
2023/05/04 08:50:43;;;;;;;82.93;12.50;;;15.30;88.50;;;;;;4965155;29;20058;-58
2023/05/04 08:53:11;;;;;;;130.70;16.60;;;15.30;89.00;;;;;;4981484;28;20498;-59
2023/05/04 08:55:37;;;;;;;103.13;16.30;;;15.30;88.90;;;;;;4984357;28;20042;-59
2023/05/04 08:58:09;;;;;;;124.03;16.38;;;15.40;88.80;;;;;;4984392;28;20197;-59
2023/05/04 09:00:35;;;;;;;90.00;14.23;;;15.40;88.60;;;;;;4984452;28;20086;-59
2023/05/04 09:03:02;;;;;;;91.82;16.00;;;15.50;88.10;;;;;;4984236;28;20029;-59
2023/05/04 09:05:28;;;;;;;93.78;14.82;;;15.50;87.90;;;;;;4969075;28;20103;-58
2023/05/04 09:07:53;;;;;;;120.20;17.55;;;15.50;87.70;;;;;;4984386;28;20046;-59
2023/05/04 09:10:19;;;;;;;92.65;14.82;;;15.50;87.90;;;;;;4984155;28;20367;-58
2023/05/04 09:12:45;;;;;;;132.88;16.00;;;15.50;88.00;;;;;;4985158;28;20391;-58
2023/05/04 09:15:18;;;;;;;108.60;15.82;;;15.60;87.90;;;;;;4983515;28;20125;-58
2023/05/04 09:18:13;;;;;;;110.70;15.52;;;15.60;88.00;;;;;;4984361;28;20071;-59
2023/05/04 09:20:43;;;;;;;116.18;16.70;;;15.60;88.60;;;;;;4983936;28;20058;-58
2023/05/04 09:23:10;;;;;;;88.43;14.50;;;15.60;88.40;;;;;;5000497;28;20031;-58
2023/05/04 09:25:50;;;;;;;88.20;15.40;;;15.60;88.20;;;;;;4984220;28;20042;-58
2023/05/04 09:28:15;;;;;;;103.03;14.32;;;15.70;88.80;;;;;;4984325;28;20098;-59
2023/05/04 09:30:41;;;;;;;95.93;15.40;;;15.70;88.10;;;;;;4983684;28;20071;-59
2023/05/04 09:33:07;;;;;;;69.32;13.43;;;15.70;87.80;;;;;;4983897;28;20034;-59
2023/05/04 09:35:33;;;;;;;87.43;14.23;;;15.70;87.90;;;;;;4983734;28;20042;-59
2023/05/04 09:37:58;;;;;;;88.63;13.23;;;15.80;87.80;;;;;;4982946;28;20026;-58
2023/05/04 09:40:34;;;;;;;88.78;14.43;;;15.80;87.70;;;;;;4983152;28;20030;-58
2023/05/04 09:43:00;;;;;;;86.75;14.63;;;15.80;88.50;;;;;;4983657;28;20054;-59
2023/05/04 09:45:26;;;;;;;128.35;17.25;;;15.80;88.10;;;;;;4983650;28;20483;-59
2023/05/04 09:47:53;;;;;;;86.13;13.48;;;15.90;88.10;;;;;;4960637;28;20027;-59
2023/05/04 09:50:21;;;;;;;63.15;13.13;;;15.90;88.60;;;;;;4983622;28;20038;-59
2023/05/04 09:52:48;;;;;;;62.75;11.85;;;15.90;88.80;;;;;;4985339;28;20031;-59
2023/05/04 09:55:15;;;;;;;48.97;11.65;;;16.00;89.30;;;;;;4983603;28;20502;-59
2023/05/04 09:57:41;;;;;;;76.55;13.00;;;16.00;89.60;;;;;;4982768;28;20031;-58
2023/05/04 10:00:16;;;;;;;75.07;13.35;;;16.10;89.60;;;;;;4984082;28;20026;-58
2023/05/04 10:02:46;;;;;;;64.82;12.55;;;16.10;90.00;;;;;;4983205;28;20099;-59
2023/05/04 10:05:16;;;;;;;57.97;11.75;;;16.10;89.20;;;;;;4983460;28;20058;-59
2023/05/04 10:07:42;;;;;;;52.13;12.02;;;16.20;89.40;;;;;;4983170;28;20041;-59
2023/05/04 10:10:10;;;;;;;77.93;12.48;;;16.20;89.60;;;;;;4980842;28;20439;-59
2023/05/04 10:12:35;;;;;;;67.50;12.98;;;16.20;89.10;;;;;;4980725;28;20050;-58
2023/05/04 10:15:01;;;;;;;53.47;12.25;;;16.30;89.20;;;;;;4982550;28;20043;-58
2023/05/04 10:17:45;;;;;;;53.78;10.63;;;16.30;89.30;;;;;;4982468;28;20023;-58
2023/05/04 10:20:10;;;;;;;50.63;10.13;;;16.30;89.50;;;;;;4980959;28;20105;-58
2023/05/04 10:22:54;;;;;;;48.92;10.85;;;16.40;89.30;;;;;;4981632;28;20039;-59
2023/05/04 10:25:29;;;;;;;50.78;11.32;;;16.40;89.10;;;;;;4985222;28;20023;-59
2023/05/04 10:28:20;;;;;;;41.70;11.43;;;16.50;88.90;;;;;;4987345;28;20038;-59
2023/05/04 10:30:46;;;;;;;51.70;10.68;;;16.60;89.30;;;;;;4980066;28;20042;-59
2023/05/04 10:33:11;;;;;;;74.63;13.05;;;16.60;89.10;;;;;;4973317;28;20086;-58
2023/05/04 10:35:37;;;;;;;51.30;11.52;;;16.70;89.00;;;;;;4981257;28;20107;-59
2023/05/04 10:38:03;;;;;;;55.75;12.15;;;16.50;88.90;;;;;;4941266;28;20101;-59
2023/05/04 10:40:38;;;;;;;31.63;10.15;;;16.70;89.10;;;;;;4968105;28;20164;-59
2023/05/04 10:43:05;;;;;;;42.78;11.35;;;16.80;89.00;;;;;;4965007;28;20065;-59
2023/05/04 10:45:40;;;;;;;51.30;11.65;;;16.90;89.50;;;;;;4988768;28;20161;-59
2023/05/04 10:48:07;;;;;;;70.53;13.73;;;16.90;88.60;;;;;;4967868;28;20038;-59
2023/05/04 10:50:48;;;;;;;95.03;15.00;;;17.00;88.30;;;;;;4965205;28;20065;-59
2023/05/04 10:53:17;;;;;;;86.97;15.02;;;17.00;88.00;;;;;;4967249;28;20050;-59
2023/05/04 10:55:44;;;;;;;76.07;13.55;;;17.10;88.10;;;;;;4981476;28;20376;-59
2023/05/04 10:58:13;;;;;;;67.10;13.75;;;17.10;87.90;;;;;;4980528;28;20033;-59
2023/05/04 11:00:46;;;;;;;47.10;11.35;;;17.20;87.90;;;;;;4984773;28;20037;-59
2023/05/04 11:03:12;;;;;;;43.38;12.48;;;17.10;87.90;;;;;;5007769;28;20069;-59
2023/05/04 11:05:53;;;;;;;45.55;12.20;;;17.20;87.70;;;;;;4970624;28;20042;-59
2023/05/04 11:08:25;;;;;;;46.22;12.85;;;17.40;87.50;;;;;;4967995;29;20037;-58
2023/05/04 11:11:01;;;;;;;59.63;11.93;;;17.40;87.30;;;;;;4984821;28;20460;-59
2023/05/04 11:13:30;;;;;;;49.03;11.30;;;17.50;87.00;;;;;;4986506;28;20039;-59
2023/05/04 11:15:56;;;;;;;48.05;10.40;;;17.60;86.70;;;;;;4969998;28;20094;-59
2023/05/04 11:18:36;;;;;;;52.80;10.02;;;17.70;86.40;;;;;;4985713;28;20031;-59
2023/05/04 11:21:02;;;;;;;45.33;10.55;;;17.80;86.10;;;;;;4991513;28;20039;-59
2023/05/04 11:23:27;;;;;;;40.47;9.55;;;17.90;85.70;;;;;;4986116;28;20070;-59
2023/05/04 11:25:53;;;;;;;45.38;9.65;;;18.00;85.70;;;;;;4986281;28;20115;-59
2023/05/04 11:28:29;;;;;;;35.17;8.75;;;18.10;85.30;;;;;;4985820;28;20395;-59
2023/05/04 11:30:56;;;;;;;48.03;9.05;;;18.20;85.10;;;;;;4970728;28;20035;-59
2023/05/04 11:33:21;;;;;;;39.00;9.02;;;18.30;84.70;;;;;;4986142;28;20091;-59
2023/05/04 11:35:47;;;;;;;35.55;8.40;;;18.40;84.10;;;;;;4986549;28;20083;-59
2023/05/04 11:38:18;;;;;;;45.33;9.57;;;18.50;83.90;;;;;;4985034;28;20023;-59
2023/05/04 11:40:46;;;;;;;51.85;9.15;;;18.60;84.00;;;;;;4985093;28;20042;-59
2023/05/04 11:43:12;;;;;;;50.40;9.32;;;18.70;83.90;;;;;;4967385;28;20027;-59
2023/05/04 11:45:38;;;;;;;66.70;11.30;;;18.70;83.50;;;;;;4983702;28;20065;-59
2023/05/04 11:48:04;;;;;;;46.03;9.13;;;18.80;83.30;;;;;;4985484;28;20039;-59
2023/05/04 11:50:30;;;;;;;36.08;8.05;;;18.90;83.40;;;;;;4985823;28;20042;-59
2023/05/04 11:53:10;;;;;;;49.17;8.73;;;19.00;83.10;;;;;;4985363;28;20023;-59
2023/05/04 11:55:36;;;;;;;45.30;9.13;;;19.10;83.20;;;;;;4967353;28;20070;-59
2023/05/04 11:58:03;;;;;;;41.45;8.93;;;19.20;82.20;;;;;;4949693;29;20083;-59
2023/05/04 12:00:40;;;;;;;38.60;8.20;;;19.30;82.10;;;;;;4979025;28;20435;-59
2023/05/04 12:03:12;;;;;;;31.05;7.35;;;19.40;81.80;;;;;;4983557;28;20090;-59
2023/05/04 12:05:38;;;;;;;44.35;8.32;;;19.50;81.50;;;;;;4985679;28;20049;-59
2023/05/04 12:08:06;;;;;;;36.58;7.72;;;19.50;81.00;;;;;;4985039;28;20097;-59
2023/05/04 12:10:33;;;;;;;39.58;7.10;;;19.60;81.10;;;;;;4984586;28;20039;-59
2023/05/04 12:13:01;;;;;;;34.38;7.28;;;19.70;80.80;;;;;;4967114;28;20038;-59
2023/05/04 12:15:33;;;;;;;32.22;7.70;;;19.80;80.80;;;;;;4967189;28;20062;-59
2023/05/04 12:17:59;;;;;;;35.40;7.05;;;19.90;80.60;;;;;;4982595;28;20042;-59
2023/05/04 12:20:27;;;;;;;36.40;7.13;;;19.90;80.10;;;;;;4982701;28;20475;-59
2023/05/04 12:22:53;;;;;;;24.58;6.50;;;20.00;79.80;;;;;;4984016;28;20058;-59
2023/05/04 12:25:18;;;;;;;27.00;6.45;;;20.10;79.30;;;;;;4986609;28;20111;-59
2023/05/04 12:27:44;;;;;;;24.48;7.05;;;20.20;78.90;;;;;;4986520;28;20069;-58
2023/05/04 12:30:10;;;;;;;31.20;6.55;;;20.30;78.40;;;;;;4985037;28;20042;-59
2023/05/04 12:32:36;;;;;;;34.88;6.72;;;20.40;78.00;;;;;;4982502;28;20081;-59
2023/05/04 12:35:03;;;;;;;35.15;6.85;;;20.40;78.00;;;;;;4983902;28;20062;-59